Time;durP1;ratioP1;P1;durP2;ratioP2;P2;SDS_P1;SDS_P2;PMS_P1;PMS_P2;Temp;Humidity;BMP_temperature;BMP_pressure;BME280_temperature;BME280_humidity;BME280_pressure;Samples;Min_cycle;Max_cycle;Signal;HPM_P1;HPM_P2
2022/03/08 00:00:15;;;;;;;21.95;15.43;;;5.60;1.00;;;;;;4996593;28;20030;-75
2022/03/08 00:02:41;;;;;;;26.17;16.63;;;5.60;1.00;;;;;;4996687;28;20042;-75
2022/03/08 00:05:07;;;;;;;25.30;16.15;;;5.70;1.00;;;;;;4996172;28;20432;-75
2022/03/08 00:07:33;;;;;;;23.10;15.85;;;5.70;1.00;;;;;;4996412;28;20085;-75
2022/03/08 00:09:59;;;;;;;19.15;14.75;;;5.80;1.00;;;;;;4996179;28;20034;-75
2022/03/08 00:12:25;;;;;;;26.17;16.65;;;5.90;1.00;;;;;;4996039;28;20488;-75
2022/03/08 00:14:51;;;;;;;24.17;15.15;;;5.90;1.00;;;;;;4996126;28;20074;-75
2022/03/08 00:17:16;;;;;;;22.73;15.15;;;5.90;1.00;;;;;;4996306;28;20503;-75
2022/03/08 00:19:42;;;;;;;25.90;16.23;;;5.80;1.00;;;;;;4996034;28;20045;-75
2022/03/08 00:22:08;;;;;;;27.35;17.05;;;5.80;1.00;;;;;;4995698;28;20125;-75
2022/03/08 00:24:34;;;;;;;28.35;18.40;;;5.70;1.00;;;;;;4995904;28;20046;-75
2022/03/08 00:27:00;;;;;;;25.90;17.08;;;5.70;1.00;;;;;;4995372;28;20038;-75
2022/03/08 00:29:25;;;;;;;23.80;15.95;;;5.80;1.00;;;;;;4995907;28;20038;-75
2022/03/08 00:31:51;;;;;;;31.23;19.58;;;5.90;1.00;;;;;;4994640;28;20068;-75
2022/03/08 00:34:17;;;;;;;24.67;17.00;;;5.80;1.00;;;;;;4996370;28;20457;-75
2022/03/08 00:36:43;;;;;;;26.08;16.95;;;5.70;1.00;;;;;;4995717;28;20046;-75
2022/03/08 00:39:09;;;;;;;27.73;17.30;;;5.70;1.00;;;;;;4995745;28;20045;-75
2022/03/08 00:41:35;;;;;;;28.73;18.17;;;5.70;1.00;;;;;;4995229;28;20046;-75
2022/03/08 00:44:00;;;;;;;25.90;16.92;;;5.70;1.00;;;;;;4995443;28;20116;-75
2022/03/08 00:46:26;;;;;;;28.60;18.60;;;5.70;1.00;;;;;;4995801;28;20058;-75
2022/03/08 00:48:52;;;;;;;22.00;15.95;;;5.80;1.00;;;;;;4995288;28;20045;-74
2022/03/08 00:51:18;;;;;;;24.52;16.05;;;5.80;1.00;;;;;;4995789;28;20125;-75
2022/03/08 00:53:44;;;;;;;25.10;17.15;;;5.70;1.00;;;;;;4995586;28;20113;-75
2022/03/08 00:56:10;;;;;;;23.55;15.73;;;5.60;1.00;;;;;;4995649;28;20086;-75
2022/03/08 00:58:36;;;;;;;24.60;18.23;;;5.60;1.00;;;;;;4995810;28;20034;-75
2022/03/08 01:01:03;;;;;;;24.38;16.48;;;5.70;1.00;;;;;;4995636;28;20044;-75
2022/03/08 01:03:29;;;;;;;24.42;15.90;;;5.70;1.00;;;;;;4995461;28;20090;-75
2022/03/08 01:05:55;;;;;;;24.02;16.08;;;5.70;1.00;;;;;;4995578;28;20583;-75
2022/03/08 01:08:20;;;;;;;21.67;15.50;;;5.70;1.00;;;;;;4995124;28;20073;-75
2022/03/08 01:10:46;;;;;;;23.63;15.48;;;5.80;1.00;;;;;;4995171;28;20050;-75
2022/03/08 01:13:12;;;;;;;21.48;16.00;;;5.80;1.00;;;;;;4995311;28;20041;-75
2022/03/08 01:15:38;;;;;;;21.30;15.38;;;5.90;1.00;;;;;;4995312;28;20042;-75
2022/03/08 01:18:04;;;;;;;24.17;16.55;;;5.90;1.00;;;;;;4995342;28;20070;-75
2022/03/08 01:20:30;;;;;;;23.83;16.15;;;6.00;1.00;;;;;;4995024;28;20393;-75
2022/03/08 01:22:56;;;;;;;20.35;15.27;;;6.00;1.00;;;;;;4995306;28;20049;-75
2022/03/08 01:25:23;;;;;;;20.73;15.32;;;5.90;1.00;;;;;;4995182;28;20057;-75
2022/03/08 01:27:50;;;;;;;24.25;16.05;;;6.00;1.00;;;;;;4995006;28;20038;-75
2022/03/08 01:30:18;;;;;;;22.13;15.55;;;6.00;1.00;;;;;;4995260;28;20042;-75
2022/03/08 01:32:44;;;;;;;20.77;15.57;;;6.00;1.00;;;;;;4995212;28;20038;-75
2022/03/08 01:35:10;;;;;;;20.83;15.35;;;6.10;1.00;;;;;;4995158;28;20053;-75
2022/03/08 01:37:36;;;;;;;23.52;15.40;;;6.00;1.00;;;;;;4995318;28;20035;-75
2022/03/08 01:40:06;;;;;;;21.38;14.95;;;6.00;1.00;;;;;;4995402;28;20042;-75
2022/03/08 01:42:33;;;;;;;22.70;14.60;;;6.00;1.00;;;;;;4996673;28;20033;-74
2022/03/08 01:44:59;;;;;;;20.33;14.65;;;6.10;1.00;;;;;;4998829;28;20129;-74
2022/03/08 01:47:26;;;;;;;19.92;14.55;;;6.20;1.00;;;;;;4999059;28;20053;-75
2022/03/08 01:49:53;;;;;;;18.98;14.20;;;6.20;1.00;;;;;;4999179;28;20042;-75
2022/03/08 01:52:22;;;;;;;23.65;14.73;;;6.20;1.00;;;;;;4998609;28;20053;-75
2022/03/08 01:54:48;;;;;;;19.50;14.75;;;6.30;1.00;;;;;;4998768;28;20038;-75
2022/03/08 01:57:15;;;;;;;21.00;14.60;;;6.20;1.00;;;;;;4998098;28;20201;-75
2022/03/08 01:59:41;;;;;;;22.00;14.45;;;6.20;1.00;;;;;;4998532;28;20038;-75
2022/03/08 02:02:08;;;;;;;22.42;13.80;;;6.30;1.00;;;;;;4998033;28;20052;-75
2022/03/08 02:04:34;;;;;;;24.33;14.80;;;6.30;1.00;;;;;;4998164;28;20118;-75
2022/03/08 02:07:00;;;;;;;19.13;14.75;;;6.20;1.00;;;;;;4998374;28;20125;-75
2022/03/08 02:09:27;;;;;;;21.17;14.48;;;6.20;1.00;;;;;;4997890;28;20042;-75
2022/03/08 02:11:53;;;;;;;22.00;14.02;;;6.20;1.00;;;;;;4998123;28;20038;-75
2022/03/08 02:14:19;;;;;;;23.02;14.25;;;6.20;1.00;;;;;;4998146;28;20042;-75
2022/03/08 02:16:46;;;;;;;21.80;14.88;;;6.20;1.00;;;;;;4997976;28;20509;-75
2022/03/08 02:19:13;;;;;;;22.25;14.63;;;6.20;1.00;;;;;;4997953;28;20113;-75
2022/03/08 02:21:40;;;;;;;20.73;13.75;;;6.20;1.00;;;;;;4997919;28;20073;-75
2022/03/08 02:24:06;;;;;;;21.65;14.45;;;6.20;1.00;;;;;;4998208;28;20046;-75
2022/03/08 02:26:32;;;;;;;21.35;13.90;;;6.20;1.00;;;;;;4998041;28;20047;-75
2022/03/08 02:29:00;;;;;;;18.35;14.50;;;6.20;1.00;;;;;;4998280;28;20034;-74
2022/03/08 02:31:26;;;;;;;19.48;13.98;;;6.20;1.00;;;;;;4997689;28;20129;-75
2022/03/08 02:33:52;;;;;;;22.60;14.35;;;6.20;1.00;;;;;;4997749;28;20069;-75
2022/03/08 02:36:18;;;;;;;22.50;15.05;;;6.30;1.00;;;;;;4997927;28;20523;-75
2022/03/08 02:38:44;;;;;;;24.58;14.82;;;6.30;1.00;;;;;;4997357;28;20125;-75
2022/03/08 02:41:10;;;;;;;18.20;13.88;;;6.20;1.00;;;;;;4997681;28;20038;-75
2022/03/08 02:43:36;;;;;;;19.20;14.52;;;6.30;1.00;;;;;;4998106;28;20477;-75
2022/03/08 02:46:02;;;;;;;25.13;16.50;;;6.20;1.00;;;;;;4997365;28;20055;-75
2022/03/08 02:48:29;;;;;;;23.65;14.98;;;6.20;1.00;;;;;;4997512;28;20042;-75
2022/03/08 02:50:55;;;;;;;19.33;14.75;;;6.20;1.00;;;;;;4997120;28;20465;-75
2022/03/08 02:53:21;;;;;;;20.42;14.85;;;6.20;1.00;;;;;;4996189;28;20038;-74
2022/03/08 02:55:47;;;;;;;22.48;15.07;;;6.30;1.00;;;;;;4996566;28;20075;-75
2022/03/08 02:58:13;;;;;;;19.95;14.57;;;6.30;1.00;;;;;;4997002;28;20125;-75
2022/03/08 03:00:39;;;;;;;22.52;15.60;;;6.30;1.00;;;;;;4996847;28;20124;-75
2022/03/08 03:03:06;;;;;;;20.35;14.60;;;6.20;1.00;;;;;;4996808;28;20038;-75
2022/03/08 03:05:32;;;;;;;20.65;14.13;;;6.30;1.00;;;;;;4996739;28;20058;-75
2022/03/08 03:07:59;;;;;;;18.52;14.38;;;6.30;1.00;;;;;;4997066;28;20049;-75
2022/03/08 03:10:25;;;;;;;18.75;13.40;;;6.30;1.00;;;;;;4997085;28;20050;-75
2022/03/08 03:12:53;;;;;;;20.65;14.82;;;6.20;1.00;;;;;;4996910;28;20042;-75
2022/03/08 03:15:20;;;;;;;22.17;14.50;;;6.20;1.00;;;;;;4996874;28;20053;-75
2022/03/08 03:17:46;;;;;;;20.30;15.02;;;6.30;1.00;;;;;;4996496;28;20069;-75
2022/03/08 03:20:15;;;;;;;21.95;15.80;;;6.30;1.00;;;;;;4996804;28;20046;-75
2022/03/08 03:22:41;;;;;;;23.10;15.10;;;6.40;1.00;;;;;;4996482;28;20500;-75
2022/03/08 03:25:09;;;;;;;19.90;15.00;;;6.40;1.00;;;;;;4996922;28;20103;-75
2022/03/08 03:27:36;;;;;;;19.77;13.88;;;6.40;1.00;;;;;;4995999;28;20404;-75
2022/03/08 03:30:05;;;;;;;17.83;14.55;;;6.40;1.00;;;;;;4996948;28;20057;-75
2022/03/08 03:32:31;;;;;;;22.45;15.02;;;6.40;1.00;;;;;;4996282;28;20041;-75
2022/03/08 03:34:57;;;;;;;21.88;15.05;;;6.40;1.00;;;;;;4996757;28;20085;-75
2022/03/08 03:37:23;;;;;;;18.33;14.48;;;6.50;1.00;;;;;;4996627;28;20444;-75
2022/03/08 03:39:51;;;;;;;20.17;14.07;;;6.50;1.00;;;;;;4996410;28;20038;-75
2022/03/08 03:42:16;;;;;;;21.00;14.48;;;6.50;1.00;;;;;;4996395;28;20088;-75
2022/03/08 03:44:42;;;;;;;21.38;14.45;;;6.40;1.00;;;;;;4996146;28;20053;-75
2022/03/08 03:47:08;;;;;;;20.02;14.65;;;6.40;1.00;;;;;;4996578;28;20045;-75
2022/03/08 03:49:34;;;;;;;19.73;13.52;;;6.50;1.00;;;;;;4996547;28;20062;-75
2022/03/08 03:52:00;;;;;;;21.00;15.50;;;6.50;1.00;;;;;;4996049;28;20520;-75
2022/03/08 03:54:26;;;;;;;21.30;14.82;;;6.40;1.00;;;;;;4996203;28;20121;-75
2022/03/08 03:56:53;;;;;;;23.80;15.50;;;6.50;1.00;;;;;;4996059;28;20062;-75
2022/03/08 03:59:18;;;;;;;26.05;15.63;;;6.40;1.00;;;;;;4996533;28;20038;-75
2022/03/08 04:01:44;;;;;;;21.52;14.25;;;6.40;1.00;;;;;;4996059;28;20508;-75
2022/03/08 04:04:10;;;;;;;22.52;14.50;;;6.50;1.00;;;;;;4995991;28;20042;-75
2022/03/08 04:06:36;;;;;;;18.67;14.63;;;6.50;1.00;;;;;;4995775;28;20436;-75
2022/03/08 04:09:04;;;;;;;19.40;14.98;;;6.50;1.00;;;;;;4996066;28;20124;-75
2022/03/08 04:11:30;;;;;;;20.13;14.45;;;6.50;1.00;;;;;;4995900;28;20038;-75
2022/03/08 04:13:56;;;;;;;21.42;14.68;;;6.40;1.00;;;;;;4996058;28;20049;-75
2022/03/08 04:16:21;;;;;;;20.67;14.20;;;6.40;1.00;;;;;;4996467;28;20121;-75
2022/03/08 04:18:47;;;;;;;19.38;14.30;;;6.50;1.00;;;;;;4996009;28;20122;-75
2022/03/08 04:21:13;;;;;;;22.13;15.55;;;6.40;1.00;;;;;;4995681;28;20484;-75
2022/03/08 04:23:39;;;;;;;19.33;14.82;;;6.50;1.00;;;;;;4995929;28;20049;-75
2022/03/08 04:26:05;;;;;;;21.65;15.32;;;6.40;1.00;;;;;;4995690;28;20057;-75
2022/03/08 04:28:30;;;;;;;20.08;14.45;;;6.50;1.00;;;;;;4996311;28;20041;-75
2022/03/08 04:30:56;;;;;;;20.05;14.65;;;6.50;1.00;;;;;;4995823;28;20447;-75
2022/03/08 04:33:22;;;;;;;22.42;15.45;;;6.50;1.00;;;;;;4995494;28;20261;-75
2022/03/08 04:35:48;;;;;;;20.40;14.25;;;6.50;1.00;;;;;;4996217;28;20071;-75
2022/03/08 04:38:14;;;;;;;19.58;14.45;;;6.50;1.00;;;;;;4995472;28;20510;-75
2022/03/08 04:40:40;;;;;;;20.48;14.60;;;6.50;1.00;;;;;;4995457;28;20046;-75
2022/03/08 04:43:06;;;;;;;21.20;15.05;;;6.50;1.00;;;;;;4995266;28;20037;-75
2022/03/08 04:45:32;;;;;;;19.58;13.70;;;6.50;1.00;;;;;;4995251;28;20140;-75
2022/03/08 04:47:58;;;;;;;18.88;14.82;;;6.50;1.00;;;;;;4995016;28;20038;-76
2022/03/08 04:50:24;;;;;;;19.70;14.38;;;6.50;1.00;;;;;;4995247;28;20038;-75
2022/03/08 04:52:51;;;;;;;19.35;14.73;;;6.50;1.00;;;;;;4995481;28;20034;-75
2022/03/08 04:55:19;;;;;;;19.10;14.82;;;6.50;1.00;;;;;;4995471;28;20042;-76
2022/03/08 04:57:46;;;;;;;19.77;14.27;;;6.50;1.00;;;;;;4994740;28;20556;-75
2022/03/08 05:00:13;;;;;;;24.95;15.98;;;6.60;1.00;;;;;;4995145;28;20042;-76
2022/03/08 05:02:44;;;;;;;19.88;15.27;;;6.60;1.00;;;;;;4995160;28;20512;-75
2022/03/08 05:05:11;;;;;;;20.20;14.80;;;6.60;1.00;;;;;;4995344;28;20128;-76
2022/03/08 05:07:41;;;;;;;19.15;14.57;;;6.60;1.00;;;;;;4995200;28;20089;-76
2022/03/08 05:10:10;;;;;;;18.48;13.98;;;6.60;1.00;;;;;;4995367;28;20038;-76
2022/03/08 05:12:37;;;;;;;22.83;14.93;;;6.60;1.00;;;;;;4994894;28;20040;-76
2022/03/08 05:15:04;;;;;;;22.23;13.88;;;6.60;1.00;;;;;;4994075;28;20081;-76
2022/03/08 05:17:30;;;;;;;21.13;14.23;;;6.60;1.00;;;;;;4995181;28;20084;-76
2022/03/08 05:19:56;;;;;;;18.77;14.45;;;6.60;1.00;;;;;;4998724;28;20050;-75
2022/03/08 05:22:23;;;;;;;20.75;14.73;;;6.60;1.00;;;;;;4997894;28;20034;-75
2022/03/08 05:24:49;;;;;;;24.45;15.20;;;6.60;1.00;;;;;;4998714;28;20046;-72
2022/03/08 05:27:15;;;;;;;19.98;14.45;;;6.60;1.00;;;;;;4998445;28;20053;-75
2022/03/08 05:29:41;;;;;;;20.73;15.15;;;6.60;1.00;;;;;;4998240;28;20042;-75
2022/03/08 05:32:07;;;;;;;21.85;15.55;;;6.60;1.00;;;;;;4998675;28;20069;-72
2022/03/08 05:34:33;;;;;;;20.20;14.00;;;6.60;1.00;;;;;;4998210;28;20069;-73
2022/03/08 05:36:59;;;;;;;20.52;14.30;;;6.50;1.00;;;;;;4998116;28;20169;-72
2022/03/08 05:39:25;;;;;;;19.80;14.40;;;6.50;1.00;;;;;;4997579;28;20077;-73
2022/03/08 05:41:51;;;;;;;19.73;14.32;;;6.60;1.00;;;;;;4996645;28;20034;-73
2022/03/08 05:44:17;;;;;;;21.35;15.90;;;6.60;1.00;;;;;;4998487;28;20046;-74
2022/03/08 05:46:43;;;;;;;21.17;14.77;;;6.60;1.00;;;;;;4998690;28;20415;-74
2022/03/08 05:49:09;;;;;;;23.65;15.10;;;6.60;1.00;;;;;;4998119;28;20125;-74
2022/03/08 05:51:35;;;;;;;22.30;15.73;;;6.60;1.00;;;;;;4998118;28;20069;-74
2022/03/08 05:54:02;;;;;;;22.90;14.98;;;6.50;1.00;;;;;;4998097;28;20046;-74
2022/03/08 05:56:27;;;;;;;20.88;15.25;;;6.50;1.00;;;;;;4998079;28;20057;-74
2022/03/08 05:58:53;;;;;;;23.08;16.33;;;6.50;1.00;;;;;;4998008;28;20038;-74
2022/03/08 06:01:19;;;;;;;20.13;14.10;;;6.60;1.00;;;;;;4997024;28;20042;-73
2022/03/08 06:03:45;;;;;;;21.10;14.98;;;6.60;1.00;;;;;;4996547;28;20046;-74
2022/03/08 06:06:12;;;;;;;21.63;14.32;;;6.60;1.00;;;;;;4993982;28;20057;-74
2022/03/08 06:08:39;;;;;;;22.23;15.43;;;6.60;1.00;;;;;;4996134;28;20058;-74
2022/03/08 06:11:05;;;;;;;21.02;15.15;;;6.60;1.00;;;;;;4996084;28;20046;-74
2022/03/08 06:13:31;;;;;;;23.55;15.65;;;6.60;1.00;;;;;;4993809;28;20093;-74
2022/03/08 06:15:57;;;;;;;18.42;14.40;;;6.50;1.00;;;;;;4996478;28;20554;-74
2022/03/08 06:18:22;;;;;;;23.27;16.50;;;6.50;1.00;;;;;;4996349;28;20062;-74
2022/03/08 06:20:48;;;;;;;22.40;15.18;;;6.50;1.00;;;;;;4995977;28;20048;-74
2022/03/08 06:23:14;;;;;;;22.65;15.70;;;6.50;1.00;;;;;;4996351;28;20400;-74
2022/03/08 06:25:40;;;;;;;26.52;16.50;;;6.50;1.00;;;;;;4995798;28;20042;-74
2022/03/08 06:28:06;;;;;;;23.08;15.52;;;6.50;1.00;;;;;;4996079;28;20512;-74
2022/03/08 06:30:33;;;;;;;20.58;15.38;;;6.50;1.00;;;;;;4996144;28;20049;-74
2022/03/08 06:32:58;;;;;;;20.98;16.40;;;6.40;1.00;;;;;;4995694;28;20465;-74
2022/03/08 06:35:24;;;;;;;19.10;14.80;;;6.40;1.00;;;;;;4985924;28;20089;-71
2022/03/08 06:37:50;;;;;;;20.23;14.65;;;6.40;1.00;;;;;;4990599;28;20030;-72
2022/03/08 06:40:17;;;;;;;24.80;17.00;;;6.40;1.00;;;;;;4994456;28;20034;-72
2022/03/08 06:42:43;;;;;;;21.88;15.88;;;6.40;1.00;;;;;;4996549;28;20039;-72
2022/03/08 06:45:09;;;;;;;23.95;16.13;;;6.40;1.00;;;;;;4997059;28;20046;-72
2022/03/08 06:47:36;;;;;;;20.92;16.15;;;6.40;1.00;;;;;;4989518;28;20043;-72
2022/03/08 06:50:02;;;;;;;20.15;15.20;;;6.40;1.00;;;;;;4982661;28;20034;-72
2022/03/08 06:52:28;;;;;;;25.45;16.33;;;6.40;1.00;;;;;;4990414;28;20042;-73
2022/03/08 06:54:54;;;;;;;25.75;17.92;;;6.30;1.00;;;;;;4988454;28;20049;-73
2022/03/08 06:57:20;;;;;;;24.60;15.98;;;6.30;1.00;;;;;;4995037;28;20058;-73
2022/03/08 06:59:46;;;;;;;20.85;16.13;;;6.20;1.00;;;;;;4997094;28;20050;-72
2022/03/08 07:02:11;;;;;;;22.58;16.50;;;6.20;1.00;;;;;;4997100;28;20101;-73
2022/03/08 07:04:37;;;;;;;25.33;17.20;;;6.20;1.00;;;;;;4996680;28;20049;-72
2022/03/08 07:07:03;;;;;;;23.45;17.33;;;6.20;1.00;;;;;;4996072;28;20065;-73
2022/03/08 07:09:29;;;;;;;24.25;17.13;;;6.20;1.00;;;;;;4977552;28;20049;-73
2022/03/08 07:11:55;;;;;;;28.27;16.10;;;6.20;1.00;;;;;;4982707;28;20050;-72
2022/03/08 07:14:21;;;;;;;21.85;16.00;;;6.20;1.00;;;;;;4997179;28;20354;-72
2022/03/08 07:16:47;;;;;;;23.00;16.58;;;6.20;1.00;;;;;;4992407;28;20382;-72
2022/03/08 07:19:14;;;;;;;23.48;16.33;;;6.20;1.00;;;;;;4988158;28;20045;-72
2022/03/08 07:21:41;;;;;;;22.33;16.98;;;6.10;1.00;;;;;;4996393;28;20092;-72
2022/03/08 07:24:08;;;;;;;22.63;16.40;;;6.10;1.00;;;;;;4996163;28;20533;-72
2022/03/08 07:26:34;;;;;;;23.83;17.63;;;6.20;1.00;;;;;;4996467;28;20050;-72
2022/03/08 07:29:00;;;;;;;24.60;16.75;;;6.20;1.00;;;;;;4996350;28;20046;-72
2022/03/08 07:31:26;;;;;;;25.58;16.55;;;6.30;1.00;;;;;;4996824;28;20124;-73
2022/03/08 07:33:52;;;;;;;21.40;16.73;;;6.20;1.00;;;;;;4996485;28;20038;-73
2022/03/08 07:36:18;;;;;;;23.05;17.42;;;6.30;1.00;;;;;;4995973;28;20488;-73
2022/03/08 07:38:44;;;;;;;24.15;17.27;;;6.20;1.00;;;;;;4996888;28;20031;-73
2022/03/08 07:41:10;;;;;;;24.55;17.08;;;6.20;1.00;;;;;;4995764;28;20046;-73
2022/03/08 07:43:36;;;;;;;24.27;16.75;;;6.30;1.00;;;;;;4996625;28;20480;-73
2022/03/08 07:46:03;;;;;;;24.17;17.25;;;6.30;1.00;;;;;;4996436;28;20092;-73
2022/03/08 07:48:29;;;;;;;26.85;16.70;;;6.30;1.00;;;;;;4995896;28;20034;-73
2022/03/08 07:50:55;;;;;;;22.23;17.42;;;6.30;1.00;;;;;;4995784;28;20481;-73
2022/03/08 07:53:21;;;;;;;25.95;16.65;;;6.30;1.00;;;;;;4996182;28;20092;-73
2022/03/08 07:55:47;;;;;;;24.05;17.25;;;6.40;1.00;;;;;;4995814;28;20038;-73
2022/03/08 07:58:14;;;;;;;22.38;16.77;;;6.40;1.00;;;;;;4993483;28;20042;-73
2022/03/08 08:00:41;;;;;;;24.85;17.50;;;6.30;1.00;;;;;;4992136;28;20042;-73
2022/03/08 08:03:07;;;;;;;23.65;17.30;;;6.40;1.00;;;;;;4983865;28;20133;-72
2022/03/08 08:05:35;;;;;;;26.88;16.75;;;6.30;1.00;;;;;;4995115;28;20053;-73
2022/03/08 08:08:02;;;;;;;25.00;17.40;;;6.30;1.00;;;;;;4980839;28;20513;-75
2022/03/08 08:10:28;;;;;;;25.02;17.63;;;6.20;1.00;;;;;;4980817;28;20031;-76
2022/03/08 08:12:53;;;;;;;26.70;17.45;;;6.20;5.50;;;;;;4980037;28;20520;-75
2022/03/08 08:15:19;;;;;;;23.30;16.70;;;6.20;1.00;;;;;;4976132;28;20042;-73
2022/03/08 08:17:45;;;;;;;24.65;16.65;;;6.10;1.40;;;;;;4982061;28;20070;-74
2022/03/08 08:20:11;;;;;;;24.08;16.98;;;6.20;1.00;;;;;;4982479;28;20038;-73
2022/03/08 08:22:37;;;;;;;22.77;16.67;;;6.20;2.60;;;;;;4991981;28;20046;-74
2022/03/08 08:25:04;;;;;;;25.08;18.08;;;6.20;1.00;;;;;;4995041;28;20068;-73
2022/03/08 08:27:30;;;;;;;23.52;17.83;;;6.10;1.00;;;;;;4995438;28;20038;-74
2022/03/08 08:29:56;;;;;;;24.10;17.67;;;6.20;1.00;;;;;;4995141;28;20536;-73
2022/03/08 08:32:22;;;;;;;24.38;17.67;;;6.20;1.00;;;;;;4995223;28;20496;-73
2022/03/08 08:34:48;;;;;;;24.98;17.25;;;6.10;3.90;;;;;;4995942;28;20038;-74
2022/03/08 08:37:14;;;;;;;25.58;17.23;;;6.20;1.00;;;;;;4995236;28;20034;-73
2022/03/08 08:39:39;;;;;;;24.65;17.13;;;6.20;1.00;;;;;;4995022;28;20113;-74
2022/03/08 08:42:06;;;;;;;24.33;17.60;;;6.20;1.00;;;;;;4995132;28;20051;-74
2022/03/08 08:44:33;;;;;;;24.80;16.52;;;6.30;1.00;;;;;;4995172;28;20041;-73
2022/03/08 08:46:59;;;;;;;24.23;16.45;;;6.30;1.00;;;;;;4995534;28;20042;-74
2022/03/08 08:49:25;;;;;;;24.60;16.98;;;6.30;1.00;;;;;;4995851;28;20042;-74
2022/03/08 08:51:51;;;;;;;26.77;17.85;;;6.20;1.00;;;;;;4994611;28;20524;-74
2022/03/08 08:54:18;;;;;;;26.75;18.17;;;6.20;1.00;;;;;;4995081;28;20038;-73
2022/03/08 08:56:44;;;;;;;27.63;16.67;;;6.30;1.00;;;;;;4994815;28;20050;-73
2022/03/08 08:59:10;;;;;;;23.17;17.00;;;6.20;1.10;;;;;;4994965;28;20165;-74
2022/03/08 09:01:37;;;;;;;24.63;17.92;;;6.20;1.00;;;;;;4994953;28;20046;-73
2022/03/08 09:04:03;;;;;;;25.25;17.67;;;6.10;1.00;;;;;;4994607;28;20039;-74
2022/03/08 09:06:29;;;;;;;23.80;16.65;;;6.10;1.00;;;;;;4995027;28;20050;-73
2022/03/08 09:08:59;;;;;;;23.58;17.27;;;6.20;1.00;;;;;;4994562;28;20038;-73
2022/03/08 09:11:25;;;;;;;24.20;18.23;;;6.10;5.40;;;;;;4994693;28;20035;-73
2022/03/08 09:13:52;;;;;;;24.23;17.10;;;6.10;12.60;;;;;;4994506;28;20038;-73
2022/03/08 09:16:18;;;;;;;24.70;17.55;;;6.10;7.60;;;;;;4994512;28;20097;-74
2022/03/08 09:18:44;;;;;;;25.15;17.65;;;6.10;10.50;;;;;;4995034;28;20038;-74
2022/03/08 09:21:12;;;;;;;26.20;18.23;;;6.00;11.80;;;;;;4994505;28;20404;-74
2022/03/08 09:23:38;;;;;;;25.30;17.90;;;6.10;18.70;;;;;;4994802;28;20042;-73
2022/03/08 09:26:05;;;;;;;24.75;17.98;;;6.10;18.30;;;;;;4994795;28;20042;-74
2022/03/08 09:28:32;;;;;;;25.45;18.23;;;6.10;22.10;;;;;;4995015;28;20130;-74
2022/03/08 09:31:01;;;;;;;27.30;19.35;;;6.00;22.10;;;;;;4994808;28;20046;-74
2022/03/08 09:33:27;;;;;;;28.75;19.25;;;6.00;26.40;;;;;;4994697;28;20038;-74
2022/03/08 09:35:53;;;;;;;24.00;17.98;;;6.00;27.10;;;;;;4994543;28;20081;-74
2022/03/08 09:38:19;;;;;;;26.35;19.40;;;6.00;24.00;;;;;;4994687;28;20520;-74
2022/03/08 09:40:47;;;;;;;25.08;18.45;;;6.00;32.80;;;;;;4994589;28;20129;-73
2022/03/08 09:43:14;;;;;;;28.33;19.15;;;6.00;23.10;;;;;;4994766;28;20030;-74
2022/03/08 09:45:40;;;;;;;27.80;19.30;;;5.90;33.90;;;;;;4994567;28;20528;-74
2022/03/08 09:48:06;;;;;;;27.70;19.05;;;5.90;41.30;;;;;;4994810;28;20054;-74
2022/03/08 09:50:32;;;;;;;30.17;19.38;;;6.00;65.20;;;;;;4994207;28;20044;-73
2022/03/08 09:52:58;;;;;;;30.77;19.73;;;6.10;56.70;;;;;;4994152;28;20034;-74
2022/03/08 09:55:25;;;;;;;28.77;19.98;;;6.00;47.00;;;;;;4994355;28;20097;-74
2022/03/08 09:57:52;;;;;;;25.83;18.65;;;6.00;49.50;;;;;;4994712;28;20145;-73
2022/03/08 10:00:21;;;;;;;28.63;19.65;;;6.10;32.50;;;;;;4994739;28;20034;-73
2022/03/08 10:02:56;;;;;;;25.70;19.20;;;6.00;34.10;;;;;;4995017;28;20489;-74
2022/03/08 10:05:39;;;;;;;27.58;18.63;;;6.00;51.90;;;;;;4998552;28;20040;-74
2022/03/08 10:08:10;;;;;;;28.73;19.98;;;6.10;37.00;;;;;;4997995;28;20515;-74
2022/03/08 10:11:07;;;;;;;28.02;19.55;;;6.00;46.40;;;;;;4997685;28;20085;-74
2022/03/08 10:13:41;;;;;;;30.55;18.73;;;6.00;54.50;;;;;;4998162;28;20442;-73
2022/03/08 10:16:29;;;;;;;32.50;20.17;;;5.90;45.40;;;;;;4997544;28;20038;-74
2022/03/08 10:19:02;;;;;;;24.95;18.90;;;6.00;52.50;;;;;;4997542;28;20042;-74
2022/03/08 10:21:35;;;;;;;26.38;19.30;;;6.10;59.20;;;;;;4998110;28;20041;-74
2022/03/08 10:24:04;;;;;;;27.83;20.27;;;6.10;48.40;;;;;;4998094;28;20041;-74
2022/03/08 10:26:41;;;;;;;27.38;19.58;;;6.00;54.00;;;;;;4997830;28;20077;-74
2022/03/08 10:29:07;;;;;;;31.38;20.70;;;6.10;53.80;;;;;;4997870;28;20050;-74
2022/03/08 10:31:33;;;;;;;28.85;20.15;;;6.00;60.80;;;;;;4997918;28;20042;-74
2022/03/08 10:34:05;;;;;;;28.13;19.42;;;6.00;68.90;;;;;;4997833;28;20034;-73
2022/03/08 10:36:32;;;;;;;24.83;19.55;;;6.00;66.00;;;;;;4997522;28;20042;-73
2022/03/08 10:39:15;;;;;;;29.55;20.40;;;5.90;75.50;;;;;;4997802;28;20042;-74
2022/03/08 10:41:49;;;;;;;26.25;19.00;;;5.90;86.10;;;;;;4997910;28;20030;-74
2022/03/08 10:44:16;;;;;;;28.85;20.58;;;5.90;78.90;;;;;;4997675;28;20131;-74
2022/03/08 10:46:57;;;;;;;28.10;20.40;;;6.00;92.10;;;;;;4997670;28;20038;-74
2022/03/08 10:49:23;;;;;;;33.35;22.50;;;5.90;91.40;;;;;;4998007;28;20069;-74
2022/03/08 10:52:02;;;;;;;55.10;32.90;;;5.90;91.50;;;;;;4997319;28;20128;-74
2022/03/08 10:54:30;;;;;;;29.75;21.13;;;6.00;78.20;;;;;;4996989;28;20064;-74
2022/03/08 10:56:56;;;;;;;30.98;21.08;;;6.00;92.60;;;;;;4997143;28;20055;-74
2022/03/08 10:59:22;;;;;;;29.88;20.85;;;6.10;92.10;;;;;;4996952;28;20501;-74
2022/03/08 11:01:48;;;;;;;29.95;21.35;;;6.00;72.00;;;;;;4997293;28;20045;-74
2022/03/08 11:04:22;;;;;;;29.73;20.75;;;6.10;83.10;;;;;;4997474;28;20039;-74
2022/03/08 11:06:53;;;;;;;28.27;20.83;;;6.10;92.20;;;;;;5382298;22;20116;-74
2022/03/08 11:09:19;;;;;;;;;;;6.10;89.80;;;;;;5016854;28;20034;-74
2022/03/08 11:11:45;;;;;;;32.20;20.10;;;6.00;86.00;;;;;;5016647;28;19924;-74
2022/03/08 11:14:12;;;;;;;33.13;21.75;;;6.00;94.80;;;;;;5016173;28;20042;-74
2022/03/08 11:16:39;;;;;;;31.75;20.35;;;6.10;94.30;;;;;;5015904;28;20053;-74
2022/03/08 11:19:05;;;;;;;28.30;21.10;;;6.10;97.10;;;;;;5017134;28;20038;-74
2022/03/08 11:21:36;;;;;;;31.90;22.17;;;6.10;94.80;;;;;;5016254;28;20554;-74
2022/03/08 11:24:03;;;;;;;25.63;19.25;;;6.10;83.60;;;;;;5016567;28;20584;-74
2022/03/08 11:26:30;;;;;;;29.92;20.25;;;6.10;93.00;;;;;;5016906;28;20510;-74
2022/03/08 11:28:56;;;;;;;29.63;19.60;;;6.20;99.90;;;;;;5016085;28;20069;-74
2022/03/08 11:31:29;;;;;;;25.98;18.70;;;6.20;96.90;;;;;;5016341;28;20080;-74
2022/03/08 11:34:10;;;;;;;30.23;22.13;;;6.30;86.10;;;;;;5016114;28;20038;-74
2022/03/08 11:36:58;;;;;;;29.92;21.20;;;6.30;94.40;;;;;;5015718;28;20045;-74
2022/03/08 11:39:30;;;;;;;29.20;18.95;;;6.40;69.60;;;;;;5015443;28;20140;-74
2022/03/08 11:42:26;;;;;;;26.33;19.75;;;6.50;55.10;;;;;;5016410;28;20042;-74
2022/03/08 11:44:57;;;;;;;27.77;19.73;;;6.60;53.00;;;;;;5016327;28;20092;-74
2022/03/08 11:47:34;;;;;;;32.25;19.73;;;6.60;58.60;;;;;;5016458;28;20049;-74
2022/03/08 11:50:00;;;;;;;29.70;19.27;;;6.70;59.50;;;;;;5016303;28;20057;-74
2022/03/08 11:52:30;;;;;;;29.65;18.92;;;6.70;35.50;;;;;;5015735;28;20072;-74
2022/03/08 11:55:06;;;;;;;28.10;19.50;;;6.70;47.60;;;;;;5015900;28;20099;-74
2022/03/08 11:57:50;;;;;;;25.10;18.10;;;6.60;36.00;;;;;;5015643;28;20088;-74
2022/03/08 12:00:27;;;;;;;29.20;18.90;;;6.80;34.50;;;;;;5016724;28;20492;-74
2022/03/08 12:02:56;;;;;;;25.08;18.13;;;6.90;45.20;;;;;;5016027;28;20115;-74
2022/03/08 12:05:41;;;;;;;31.42;18.77;;;6.80;21.50;;;;;;5015781;28;20037;-74
2022/03/08 12:08:23;;;;;;;27.55;18.90;;;6.80;27.30;;;;;;5015212;28;20050;-74
2022/03/08 12:10:51;;;;;;;27.55;18.35;;;6.80;25.80;;;;;;5015900;28;20099;-74
2022/03/08 12:13:30;;;;;;;27.85;20.33;;;6.80;22.90;;;;;;5015670;28;20037;-74
2022/03/08 12:16:10;;;;;;;27.58;18.73;;;6.70;28.80;;;;;;5015362;28;20140;-74
2022/03/08 12:18:41;;;;;;;28.23;19.38;;;6.80;31.30;;;;;;5015286;28;20129;-74
2022/03/08 12:21:19;;;;;;;;;;;6.80;30.30;;;;;;5015535;28;20042;-74
2022/03/08 12:24:17;;;;;;;27.95;17.92;;;6.90;21.80;;;;;;5015015;28;19913;-74
2022/03/08 12:26:50;;;;;;;26.98;18.67;;;6.90;11.80;;;;;;5015431;28;20614;-74
2022/03/08 12:29:20;;;;;;;26.48;18.08;;;7.00;14.30;;;;;;5014938;28;20041;-74
2022/03/08 12:32:06;;;;;;;29.55;18.13;;;6.90;23.20;;;;;;5014621;28;20044;-74
2022/03/08 12:34:39;;;;;;;26.45;17.20;;;6.90;12.60;;;;;;4965432;28;20068;-73
2022/03/08 12:37:04;;;;;;;25.73;18.02;;;6.80;17.90;;;;;;5015336;28;20546;-74
2022/03/08 12:40:17;;;;;;;28.63;18.55;;;6.80;16.90;;;;;;5015119;28;20116;-74
2022/03/08 12:42:53;;;;;;;22.15;17.15;;;6.80;23.50;;;;;;4970878;28;20547;-74
2022/03/08 12:45:35;;;;;;;24.92;16.92;;;6.90;13.50;;;;;;5015350;28;20081;-74
2022/03/08 12:48:04;;;;;;;24.98;17.27;;;7.00;12.10;;;;;;5015208;28;20044;-74